sensor_id;sensor_type;location;lat;lon;timestamp;P1;durP1;ratioP1;P2;durP2;ratioP2
44842;SDS011;31884;52.538;13.820;2022-12-24T00:00:23;17.30;;;10.65;;
44842;SDS011;31884;52.538;13.820;2022-12-24T00:02:49;18.75;;;9.93;;
44842;SDS011;31884;52.538;13.820;2022-12-24T00:05:14;14.52;;;9.60;;
44842;SDS011;31884;52.538;13.820;2022-12-24T00:07:40;15.85;;;9.57;;
44842;SDS011;31884;52.538;13.820;2022-12-24T00:10:06;18.08;;;9.52;;
44842;SDS011;31884;52.538;13.820;2022-12-24T00:12:33;20.23;;;9.52;;
44842;SDS011;31884;52.538;13.820;2022-12-24T00:14:58;16.65;;;10.32;;
44842;SDS011;31884;52.538;13.820;2022-12-24T00:17:24;17.38;;;10.65;;
44842;SDS011;31884;52.538;13.820;2022-12-24T00:19:49;20.00;;;11.07;;
44842;SDS011;31884;52.538;13.820;2022-12-24T00:22:15;15.93;;;9.35;;
44842;SDS011;31884;52.538;13.820;2022-12-24T00:24:40;22.10;;;9.57;;
44842;SDS011;31884;52.538;13.820;2022-12-24T00:27:06;18.75;;;10.85;;
44842;SDS011;31884;52.538;13.820;2022-12-24T00:29:32;21.55;;;11.10;;
44842;SDS011;31884;52.538;13.820;2022-12-24T00:31:57;20.00;;;10.00;;
44842;SDS011;31884;52.538;13.820;2022-12-24T00:34:23;16.33;;;9.77;;
44842;SDS011;31884;52.538;13.820;2022-12-24T00:36:50;15.35;;;9.70;;
44842;SDS011;31884;52.538;13.820;2022-12-24T00:39:15;16.42;;;8.82;;
44842;SDS011;31884;52.538;13.820;2022-12-24T00:41:41;13.45;;;8.85;;
44842;SDS011;31884;52.538;13.820;2022-12-24T00:44:06;16.75;;;9.98;;
44842;SDS011;31884;52.538;13.820;2022-12-24T00:46:34;18.17;;;9.13;;
44842;SDS011;31884;52.538;13.820;2022-12-24T00:49:02;15.18;;;8.68;;
44842;SDS011;31884;52.538;13.820;2022-12-24T00:51:28;15.40;;;8.70;;
44842;SDS011;31884;52.538;13.820;2022-12-24T00:53:54;16.33;;;8.48;;
44842;SDS011;31884;52.538;13.820;2022-12-24T00:56:20;18.60;;;10.07;;
44842;SDS011;31884;52.538;13.820;2022-12-24T00:58:46;14.05;;;8.70;;
44842;SDS011;31884;52.538;13.820;2022-12-24T01:01:12;14.70;;;8.48;;
44842;SDS011;31884;52.538;13.820;2022-12-24T01:03:37;16.55;;;8.93;;
44842;SDS011;31884;52.538;13.820;2022-12-24T01:06:04;16.23;;;9.02;;
44842;SDS011;31884;52.538;13.820;2022-12-24T01:08:32;16.00;;;8.38;;
44842;SDS011;31884;52.538;13.820;2022-12-24T01:11:00;15.55;;;9.20;;
44842;SDS011;31884;52.538;13.820;2022-12-24T01:13:26;15.52;;;8.90;;
44842;SDS011;31884;52.538;13.820;2022-12-24T01:15:52;14.15;;;8.65;;
44842;SDS011;31884;52.538;13.820;2022-12-24T01:18:18;14.30;;;9.65;;
44842;SDS011;31884;52.538;13.820;2022-12-24T01:20:44;16.73;;;8.95;;
44842;SDS011;31884;52.538;13.820;2022-12-24T01:23:10;19.10;;;9.90;;
44842;SDS011;31884;52.538;13.820;2022-12-24T01:25:38;15.77;;;9.57;;
44842;SDS011;31884;52.538;13.820;2022-12-24T01:28:04;15.80;;;9.48;;
44842;SDS011;31884;52.538;13.820;2022-12-24T01:30:30;17.85;;;9.95;;
44842;SDS011;31884;52.538;13.820;2022-12-24T01:32:56;15.23;;;8.80;;
44842;SDS011;31884;52.538;13.820;2022-12-24T01:35:22;17.05;;;9.43;;
44842;SDS011;31884;52.538;13.820;2022-12-24T01:37:47;14.18;;;8.90;;
44842;SDS011;31884;52.538;13.820;2022-12-24T01:40:14;13.13;;;8.88;;
44842;SDS011;31884;52.538;13.820;2022-12-24T01:51:05;17.08;;;9.73;;
44842;SDS011;31884;52.538;13.820;2022-12-24T01:53:33;20.27;;;10.70;;
44842;SDS011;31884;52.538;13.820;2022-12-24T01:56:01;21.27;;;10.32;;
44842;SDS011;31884;52.538;13.820;2022-12-24T01:58:28;16.80;;;9.90;;
44842;SDS011;31884;52.538;13.820;2022-12-24T02:00:54;20.50;;;10.95;;
44842;SDS011;31884;52.538;13.820;2022-12-24T02:03:19;16.70;;;9.82;;
44842;SDS011;31884;52.538;13.820;2022-12-24T02:05:50;21.83;;;11.13;;
44842;SDS011;31884;52.538;13.820;2022-12-24T02:08:17;18.48;;;11.00;;
44842;SDS011;31884;52.538;13.820;2022-12-24T02:10:47;19.75;;;10.80;;
44842;SDS011;31884;52.538;13.820;2022-12-24T02:13:15;18.73;;;10.32;;
44842;SDS011;31884;52.538;13.820;2022-12-24T02:21:30;22.98;;;12.00;;
44842;SDS011;31884;52.538;13.820;2022-12-24T02:27:08;22.13;;;11.80;;
44842;SDS011;31884;52.538;13.820;2022-12-24T02:35:20;21.05;;;11.98;;
44842;SDS011;31884;52.538;13.820;2022-12-24T02:38:00;22.13;;;11.80;;
44842;SDS011;31884;52.538;13.820;2022-12-24T02:40:40;18.92;;;11.98;;
44842;SDS011;31884;52.538;13.820;2022-12-24T02:43:12;24.88;;;13.13;;
44842;SDS011;31884;52.538;13.820;2022-12-24T02:45:42;22.90;;;12.35;;
44842;SDS011;31884;52.538;13.820;2022-12-24T02:48:13;28.10;;;12.50;;
44842;SDS011;31884;52.538;13.820;2022-12-24T02:50:52;20.15;;;11.45;;
44842;SDS011;31884;52.538;13.820;2022-12-24T02:53:29;23.88;;;12.25;;
44842;SDS011;31884;52.538;13.820;2022-12-24T02:55:58;23.73;;;12.82;;
44842;SDS011;31884;52.538;13.820;2022-12-24T03:01:30;23.17;;;12.85;;
44842;SDS011;31884;52.538;13.820;2022-12-24T03:04:15;23.38;;;13.88;;
44842;SDS011;31884;52.538;13.820;2022-12-24T03:07:22;27.27;;;13.15;;
44842;SDS011;31884;52.538;13.820;2022-12-24T03:10:05;24.10;;;12.32;;
44842;SDS011;31884;52.538;13.820;2022-12-24T03:12:46;22.30;;;12.57;;
44842;SDS011;31884;52.538;13.820;2022-12-24T03:15:26;23.48;;;13.10;;
44842;SDS011;31884;52.538;13.820;2022-12-24T03:17:55;23.73;;;12.05;;
44842;SDS011;31884;52.538;13.820;2022-12-24T03:20:24;22.58;;;12.13;;
44842;SDS011;31884;52.538;13.820;2022-12-24T03:22:56;20.77;;;11.68;;
44842;SDS011;31884;52.538;13.820;2022-12-24T03:25:23;21.38;;;11.52;;
44842;SDS011;31884;52.538;13.820;2022-12-24T03:27:50;23.48;;;13.18;;
44842;SDS011;31884;52.538;13.820;2022-12-24T03:30:16;21.45;;;13.05;;
44842;SDS011;31884;52.538;13.820;2022-12-24T03:32:42;21.52;;;12.52;;
44842;SDS011;31884;52.538;13.820;2022-12-24T03:35:09;20.13;;;11.45;;
44842;SDS011;31884;52.538;13.820;2022-12-24T03:37:35;20.45;;;11.27;;
44842;SDS011;31884;52.538;13.820;2022-12-24T03:40:02;21.13;;;12.40;;
44842;SDS011;31884;52.538;13.820;2022-12-24T03:42:29;21.75;;;12.25;;
44842;SDS011;31884;52.538;13.820;2022-12-24T03:44:54;24.05;;;12.23;;
44842;SDS011;31884;52.538;13.820;2022-12-24T03:47:20;23.25;;;13.05;;
44842;SDS011;31884;52.538;13.820;2022-12-24T03:49:45;20.35;;;12.70;;
44842;SDS011;31884;52.538;13.820;2022-12-24T03:52:11;23.90;;;12.75;;
44842;SDS011;31884;52.538;13.820;2022-12-24T03:54:36;21.25;;;12.05;;
44842;SDS011;31884;52.538;13.820;2022-12-24T03:57:02;19.08;;;10.88;;
44842;SDS011;31884;52.538;13.820;2022-12-24T03:59:27;22.50;;;12.10;;
44842;SDS011;31884;52.538;13.820;2022-12-24T04:01:53;17.58;;;10.35;;
44842;SDS011;31884;52.538;13.820;2022-12-24T04:04:18;21.13;;;11.30;;
44842;SDS011;31884;52.538;13.820;2022-12-24T04:06:44;19.70;;;10.98;;
44842;SDS011;31884;52.538;13.820;2022-12-24T04:09:09;19.63;;;10.73;;
44842;SDS011;31884;52.538;13.820;2022-12-24T04:11:35;20.17;;;11.48;;
44842;SDS011;31884;52.538;13.820;2022-12-24T04:14:00;20.75;;;11.13;;
44842;SDS011;31884;52.538;13.820;2022-12-24T04:16:26;19.88;;;11.52;;
44842;SDS011;31884;52.538;13.820;2022-12-24T04:18:51;20.98;;;12.65;;
44842;SDS011;31884;52.538;13.820;2022-12-24T04:21:17;18.10;;;10.93;;
44842;SDS011;31884;52.538;13.820;2022-12-24T04:23:42;19.58;;;11.00;;
44842;SDS011;31884;52.538;13.820;2022-12-24T04:26:09;20.33;;;11.73;;
44842;SDS011;31884;52.538;13.820;2022-12-24T04:28:36;17.35;;;9.82;;
44842;SDS011;31884;52.538;13.820;2022-12-24T04:31:04;20.73;;;11.50;;
44842;SDS011;31884;52.538;13.820;2022-12-24T04:33:32;17.23;;;11.07;;
44842;SDS011;31884;52.538;13.820;2022-12-24T04:35:58;18.63;;;10.10;;
44842;SDS011;31884;52.538;13.820;2022-12-24T04:38:25;18.33;;;10.68;;
44842;SDS011;31884;52.538;13.820;2022-12-24T04:41:01;19.95;;;11.18;;
44842;SDS011;31884;52.538;13.820;2022-12-24T04:43:29;20.52;;;10.70;;
44842;SDS011;31884;52.538;13.820;2022-12-24T04:45:55;20.83;;;11.00;;
44842;SDS011;31884;52.538;13.820;2022-12-24T04:48:20;22.15;;;11.73;;
44842;SDS011;31884;52.538;13.820;2022-12-24T04:50:46;21.02;;;12.02;;
44842;SDS011;31884;52.538;13.820;2022-12-24T04:53:11;21.48;;;10.32;;
44842;SDS011;31884;52.538;13.820;2022-12-24T04:55:42;18.77;;;11.02;;
44842;SDS011;31884;52.538;13.820;2022-12-24T04:58:11;19.67;;;10.50;;
44842;SDS011;31884;52.538;13.820;2022-12-24T05:00:37;21.83;;;11.52;;
44842;SDS011;31884;52.538;13.820;2022-12-24T05:03:04;18.83;;;10.13;;
44842;SDS011;31884;52.538;13.820;2022-12-24T05:05:29;20.15;;;10.73;;
44842;SDS011;31884;52.538;13.820;2022-12-24T05:07:55;19.65;;;9.65;;
44842;SDS011;31884;52.538;13.820;2022-12-24T05:10:20;17.48;;;10.45;;
44842;SDS011;31884;52.538;13.820;2022-12-24T05:12:46;21.77;;;11.10;;
44842;SDS011;31884;52.538;13.820;2022-12-24T05:15:11;16.92;;;9.27;;
44842;SDS011;31884;52.538;13.820;2022-12-24T05:17:37;18.13;;;9.43;;
44842;SDS011;31884;52.538;13.820;2022-12-24T05:20:02;15.85;;;9.38;;
44842;SDS011;31884;52.538;13.820;2022-12-24T05:22:28;17.83;;;9.48;;
44842;SDS011;31884;52.538;13.820;2022-12-24T05:25:12;15.90;;;8.63;;
44842;SDS011;31884;52.538;13.820;2022-12-24T05:27:57;19.30;;;9.20;;
44842;SDS011;31884;52.538;13.820;2022-12-24T05:30:23;21.65;;;10.38;;
44842;SDS011;31884;52.538;13.820;2022-12-24T05:32:48;16.63;;;8.43;;
44842;SDS011;31884;52.538;13.820;2022-12-24T05:35:14;16.23;;;8.82;;
44842;SDS011;31884;52.538;13.820;2022-12-24T05:37:40;15.98;;;9.70;;
44842;SDS011;31884;52.538;13.820;2022-12-24T05:40:05;21.48;;;9.75;;
44842;SDS011;31884;52.538;13.820;2022-12-24T05:42:31;19.92;;;8.90;;
44842;SDS011;31884;52.538;13.820;2022-12-24T05:44:57;18.45;;;9.10;;
44842;SDS011;31884;52.538;13.820;2022-12-24T05:47:22;14.45;;;8.30;;
44842;SDS011;31884;52.538;13.820;2022-12-24T05:49:48;14.43;;;8.70;;
44842;SDS011;31884;52.538;13.820;2022-12-24T05:52:13;16.95;;;9.52;;
44842;SDS011;31884;52.538;13.820;2022-12-24T05:54:39;15.73;;;8.70;;
44842;SDS011;31884;52.538;13.820;2022-12-24T05:57:04;18.00;;;8.57;;
44842;SDS011;31884;52.538;13.820;2022-12-24T05:59:30;18.83;;;10.35;;
44842;SDS011;31884;52.538;13.820;2022-12-24T06:01:55;15.50;;;8.52;;
44842;SDS011;31884;52.538;13.820;2022-12-24T06:04:21;20.90;;;9.82;;
44842;SDS011;31884;52.538;13.820;2022-12-24T06:06:46;17.52;;;9.80;;
44842;SDS011;31884;52.538;13.820;2022-12-24T06:09:12;19.60;;;8.70;;
44842;SDS011;31884;52.538;13.820;2022-12-24T06:11:37;17.00;;;8.88;;
44842;SDS011;31884;52.538;13.820;2022-12-24T06:14:02;14.80;;;8.35;;
44842;SDS011;31884;52.538;13.820;2022-12-24T06:16:28;13.50;;;8.75;;
44842;SDS011;31884;52.538;13.820;2022-12-24T06:18:54;16.67;;;9.15;;
44842;SDS011;31884;52.538;13.820;2022-12-24T06:21:19;17.25;;;9.65;;
44842;SDS011;31884;52.538;13.820;2022-12-24T06:23:45;14.05;;;8.43;;
44842;SDS011;31884;52.538;13.820;2022-12-24T06:26:12;16.17;;;8.88;;
44842;SDS011;31884;52.538;13.820;2022-12-24T06:28:39;14.52;;;8.20;;
44842;SDS011;31884;52.538;13.820;2022-12-24T06:31:05;18.27;;;9.60;;
44842;SDS011;31884;52.538;13.820;2022-12-24T06:33:36;15.73;;;8.40;;
44842;SDS011;31884;52.538;13.820;2022-12-24T06:36:01;18.48;;;8.75;;
44842;SDS011;31884;52.538;13.820;2022-12-24T06:38:31;14.77;;;8.60;;
44842;SDS011;31884;52.538;13.820;2022-12-24T06:40:57;17.83;;;9.85;;
44842;SDS011;31884;52.538;13.820;2022-12-24T06:43:22;19.25;;;9.68;;
44842;SDS011;31884;52.538;13.820;2022-12-24T06:45:48;15.13;;;8.50;;
44842;SDS011;31884;52.538;13.820;2022-12-24T06:48:13;14.40;;;7.95;;
44842;SDS011;31884;52.538;13.820;2022-12-24T06:50:39;17.63;;;8.52;;
44842;SDS011;31884;52.538;13.820;2022-12-24T06:53:05;17.52;;;8.80;;
44842;SDS011;31884;52.538;13.820;2022-12-24T06:55:31;17.08;;;9.77;;
44842;SDS011;31884;52.538;13.820;2022-12-24T06:57:56;14.05;;;8.75;;
44842;SDS011;31884;52.538;13.820;2022-12-24T07:00:22;15.88;;;8.88;;
44842;SDS011;31884;52.538;13.820;2022-12-24T07:02:48;21.05;;;9.07;;
44842;SDS011;31884;52.538;13.820;2022-12-24T07:05:14;16.40;;;9.10;;
44842;SDS011;31884;52.538;13.820;2022-12-24T07:07:40;19.92;;;10.35;;
44842;SDS011;31884;52.538;13.820;2022-12-24T07:10:09;16.90;;;8.75;;
44842;SDS011;31884;52.538;13.820;2022-12-24T07:12:36;18.02;;;8.50;;
44842;SDS011;31884;52.538;13.820;2022-12-24T07:15:02;16.55;;;9.27;;
44842;SDS011;31884;52.538;13.820;2022-12-24T07:17:28;16.77;;;9.02;;
44842;SDS011;31884;52.538;13.820;2022-12-24T07:19:53;14.82;;;7.90;;
44842;SDS011;31884;52.538;13.820;2022-12-24T07:22:18;17.00;;;9.43;;
44842;SDS011;31884;52.538;13.820;2022-12-24T07:24:44;20.23;;;9.18;;
44842;SDS011;31884;52.538;13.820;2022-12-24T07:27:10;16.67;;;9.15;;
44842;SDS011;31884;52.538;13.820;2022-12-24T07:29:35;17.30;;;8.45;;
44842;SDS011;31884;52.538;13.820;2022-12-24T07:32:01;16.55;;;8.57;;
44842;SDS011;31884;52.538;13.820;2022-12-24T07:34:26;17.35;;;8.50;;
44842;SDS011;31884;52.538;13.820;2022-12-24T07:36:51;18.05;;;8.75;;
44842;SDS011;31884;52.538;13.820;2022-12-24T07:39:17;17.75;;;8.57;;
44842;SDS011;31884;52.538;13.820;2022-12-24T07:41:42;15.60;;;9.20;;
44842;SDS011;31884;52.538;13.820;2022-12-24T07:44:11;19.17;;;9.38;;
44842;SDS011;31884;52.538;13.820;2022-12-24T07:46:39;17.13;;;10.05;;
44842;SDS011;31884;52.538;13.820;2022-12-24T07:49:04;20.23;;;9.98;;
44842;SDS011;31884;52.538;13.820;2022-12-24T07:51:30;17.05;;;9.10;;
44842;SDS011;31884;52.538;13.820;2022-12-24T07:53:55;14.82;;;8.43;;
44842;SDS011;31884;52.538;13.820;2022-12-24T07:56:21;16.13;;;8.52;;
44842;SDS011;31884;52.538;13.820;2022-12-24T07:58:48;15.07;;;8.65;;
44842;SDS011;31884;52.538;13.820;2022-12-24T08:01:14;17.65;;;8.73;;
44842;SDS011;31884;52.538;13.820;2022-12-24T08:03:39;18.02;;;10.18;;
44842;SDS011;31884;52.538;13.820;2022-12-24T08:06:05;15.82;;;10.38;;
44842;SDS011;31884;52.538;13.820;2022-12-24T08:08:30;18.08;;;10.15;;
44842;SDS011;31884;52.538;13.820;2022-12-24T08:11:00;16.95;;;9.93;;
44842;SDS011;31884;52.538;13.820;2022-12-24T08:13:27;19.30;;;10.38;;
44842;SDS011;31884;52.538;13.820;2022-12-24T08:15:53;15.80;;;9.57;;
44842;SDS011;31884;52.538;13.820;2022-12-24T08:18:18;29.98;;;15.30;;
44842;SDS011;31884;52.538;13.820;2022-12-24T08:20:44;23.95;;;12.02;;
44842;SDS011;31884;52.538;13.820;2022-12-24T08:23:09;17.92;;;10.60;;
44842;SDS011;31884;52.538;13.820;2022-12-24T08:25:35;18.10;;;10.15;;
44842;SDS011;31884;52.538;13.820;2022-12-24T08:28:00;17.45;;;10.45;;
44842;SDS011;31884;52.538;13.820;2022-12-24T08:30:26;15.38;;;8.52;;
44842;SDS011;31884;52.538;13.820;2022-12-24T08:32:52;17.65;;;9.00;;
44842;SDS011;31884;52.538;13.820;2022-12-24T08:35:18;18.00;;;9.55;;
44842;SDS011;31884;52.538;13.820;2022-12-24T08:37:44;20.77;;;9.18;;
44842;SDS011;31884;52.538;13.820;2022-12-24T08:40:10;17.80;;;10.43;;
44842;SDS011;31884;52.538;13.820;2022-12-24T08:42:36;15.73;;;9.15;;
44842;SDS011;31884;52.538;13.820;2022-12-24T08:45:02;16.05;;;8.65;;
44842;SDS011;31884;52.538;13.820;2022-12-24T08:47:27;15.15;;;8.57;;
44842;SDS011;31884;52.538;13.820;2022-12-24T08:49:53;15.02;;;8.20;;
44842;SDS011;31884;52.538;13.820;2022-12-24T08:52:18;16.13;;;9.07;;
44842;SDS011;31884;52.538;13.820;2022-12-24T08:54:44;20.88;;;10.65;;
44842;SDS011;31884;52.538;13.820;2022-12-24T08:57:09;15.95;;;9.65;;
44842;SDS011;31884;52.538;13.820;2022-12-24T08:59:35;20.35;;;10.07;;
44842;SDS011;31884;52.538;13.820;2022-12-24T09:02:00;18.05;;;9.02;;
44842;SDS011;31884;52.538;13.820;2022-12-24T09:04:26;19.63;;;9.80;;
44842;SDS011;31884;52.538;13.820;2022-12-24T09:06:52;15.43;;;8.48;;
44842;SDS011;31884;52.538;13.820;2022-12-24T09:09:17;19.83;;;10.90;;
44842;SDS011;31884;52.538;13.820;2022-12-24T09:11:43;16.15;;;8.70;;
44842;SDS011;31884;52.538;13.820;2022-12-24T09:14:09;15.90;;;8.30;;
44842;SDS011;31884;52.538;13.820;2022-12-24T09:16:35;13.07;;;7.65;;
44842;SDS011;31884;52.538;13.820;2022-12-24T09:19:00;24.35;;;12.38;;
44842;SDS011;31884;52.538;13.820;2022-12-24T09:21:26;16.10;;;9.93;;
44842;SDS011;31884;52.538;13.820;2022-12-24T09:23:51;15.00;;;9.10;;
44842;SDS011;31884;52.538;13.820;2022-12-24T09:28:47;16.85;;;9.52;;
44842;SDS011;31884;52.538;13.820;2022-12-24T09:31:13;18.55;;;10.02;;
44842;SDS011;31884;52.538;13.820;2022-12-24T09:33:39;20.15;;;10.10;;
44842;SDS011;31884;52.538;13.820;2022-12-24T09:36:05;16.88;;;8.85;;
44842;SDS011;31884;52.538;13.820;2022-12-24T09:38:32;16.20;;;8.57;;
44842;SDS011;31884;52.538;13.820;2022-12-24T09:40:58;16.20;;;8.13;;
44842;SDS011;31884;52.538;13.820;2022-12-24T09:43:26;14.82;;;7.70;;
44842;SDS011;31884;52.538;13.820;2022-12-24T09:46:08;16.23;;;9.02;;
44842;SDS011;31884;52.538;13.820;2022-12-24T09:48:38;16.77;;;9.77;;
44842;SDS011;31884;52.538;13.820;2022-12-24T09:51:08;14.80;;;8.40;;
44842;SDS011;31884;52.538;13.820;2022-12-24T09:56:11;16.13;;;9.18;;
44842;SDS011;31884;52.538;13.820;2022-12-24T09:59:01;16.90;;;8.93;;
44842;SDS011;31884;52.538;13.820;2022-12-24T10:01:29;12.18;;;7.47;;
44842;SDS011;31884;52.538;13.820;2022-12-24T10:03:57;11.13;;;6.57;;
44842;SDS011;31884;52.538;13.820;2022-12-24T10:09:11;13.30;;;6.32;;
44842;SDS011;31884;52.538;13.820;2022-12-24T10:22:51;14.18;;;7.82;;
44842;SDS011;31884;52.538;13.820;2022-12-24T10:25:29;11.27;;;6.45;;
44842;SDS011;31884;52.538;13.820;2022-12-24T10:27:59;13.45;;;6.95;;
44842;SDS011;31884;52.538;13.820;2022-12-24T10:30:26;10.80;;;6.47;;
44842;SDS011;31884;52.538;13.820;2022-12-24T10:32:53;14.48;;;8.82;;
44842;SDS011;31884;52.538;13.820;2022-12-24T10:35:24;11.85;;;6.95;;
44842;SDS011;31884;52.538;13.820;2022-12-24T10:37:56;11.88;;;6.97;;
44842;SDS011;31884;52.538;13.820;2022-12-24T10:40:34;11.18;;;6.97;;
44842;SDS011;31884;52.538;13.820;2022-12-24T10:43:04;12.05;;;7.45;;
44842;SDS011;31884;52.538;13.820;2022-12-24T10:45:45;10.75;;;6.18;;
44842;SDS011;31884;52.538;13.820;2022-12-24T10:48:19;11.82;;;6.43;;
44842;SDS011;31884;52.538;13.820;2022-12-24T10:50:58;8.05;;;5.35;;
44842;SDS011;31884;52.538;13.820;2022-12-24T10:53:31;10.48;;;5.50;;
44842;SDS011;31884;52.538;13.820;2022-12-24T10:56:05;12.50;;;6.57;;
44842;SDS011;31884;52.538;13.820;2022-12-24T10:58:32;10.27;;;5.30;;
44842;SDS011;31884;52.538;13.820;2022-12-24T11:00:58;8.02;;;5.30;;
44842;SDS011;31884;52.538;13.820;2022-12-24T11:03:27;14.35;;;7.00;;
44842;SDS011;31884;52.538;13.820;2022-12-24T11:06:00;11.07;;;6.43;;
44842;SDS011;31884;52.538;13.820;2022-12-24T11:08:25;9.05;;;5.18;;
44842;SDS011;31884;52.538;13.820;2022-12-24T11:10:56;8.85;;;5.68;;
44842;SDS011;31884;52.538;13.820;2022-12-24T11:13:35;10.52;;;6.03;;
44842;SDS011;31884;52.538;13.820;2022-12-24T11:16:09;9.30;;;5.60;;
44842;SDS011;31884;52.538;13.820;2022-12-24T11:18:53;9.13;;;5.78;;
44842;SDS011;31884;52.538;13.820;2022-12-24T11:21:27;7.45;;;4.88;;
44842;SDS011;31884;52.538;13.820;2022-12-24T11:23:58;11.32;;;6.55;;
44842;SDS011;31884;52.538;13.820;2022-12-24T11:26:37;9.15;;;5.53;;
44842;SDS011;31884;52.538;13.820;2022-12-24T11:31:47;10.70;;;6.53;;
44842;SDS011;31884;52.538;13.820;2022-12-24T11:36:42;11.73;;;7.43;;
44842;SDS011;31884;52.538;13.820;2022-12-24T11:39:10;12.00;;;7.15;;
44842;SDS011;31884;52.538;13.820;2022-12-24T11:41:46;11.93;;;6.43;;
44842;SDS011;31884;52.538;13.820;2022-12-24T11:44:12;11.05;;;6.45;;
44842;SDS011;31884;52.538;13.820;2022-12-24T11:46:39;12.50;;;7.18;;
44842;SDS011;31884;52.538;13.820;2022-12-24T11:51:35;13.40;;;7.35;;
44842;SDS011;31884;52.538;13.820;2022-12-24T11:54:14;11.95;;;7.45;;
44842;SDS011;31884;52.538;13.820;2022-12-24T11:56:43;10.10;;;5.55;;
44842;SDS011;31884;52.538;13.820;2022-12-24T12:02:22;13.95;;;7.28;;
44842;SDS011;31884;52.538;13.820;2022-12-24T12:04:53;11.75;;;6.88;;
44842;SDS011;31884;52.538;13.820;2022-12-24T12:09:55;19.92;;;8.25;;
44842;SDS011;31884;52.538;13.820;2022-12-24T12:12:28;18.55;;;8.25;;
44842;SDS011;31884;52.538;13.820;2022-12-24T12:17:53;13.68;;;7.95;;
44842;SDS011;31884;52.538;13.820;2022-12-24T12:28:58;12.25;;;7.55;;
44842;SDS011;31884;52.538;13.820;2022-12-24T12:31:39;15.48;;;7.55;;
44842;SDS011;31884;52.538;13.820;2022-12-24T12:34:10;11.65;;;6.80;;
44842;SDS011;31884;52.538;13.820;2022-12-24T12:36:45;13.32;;;8.38;;
44842;SDS011;31884;52.538;13.820;2022-12-24T12:39:15;17.15;;;8.65;;
44842;SDS011;31884;52.538;13.820;2022-12-24T12:44:40;14.43;;;7.90;;
44842;SDS011;31884;52.538;13.820;2022-12-24T12:47:44;16.10;;;8.95;;
44842;SDS011;31884;52.538;13.820;2022-12-24T12:58:30;17.15;;;10.05;;
44842;SDS011;31884;52.538;13.820;2022-12-24T13:01:15;18.30;;;9.93;;
44842;SDS011;31884;52.538;13.820;2022-12-24T13:09:50;19.38;;;9.82;;
44842;SDS011;31884;52.538;13.820;2022-12-24T13:12:48;16.80;;;9.30;;
44842;SDS011;31884;52.538;13.820;2022-12-24T13:18:23;16.27;;;10.40;;
44842;SDS011;31884;52.538;13.820;2022-12-24T13:21:16;20.90;;;11.65;;
44842;SDS011;31884;52.538;13.820;2022-12-24T13:23:44;17.63;;;10.30;;
44842;SDS011;31884;52.538;13.820;2022-12-24T13:26:10;20.08;;;12.70;;
44842;SDS011;31884;52.538;13.820;2022-12-24T13:28:38;20.83;;;13.43;;
44842;SDS011;31884;52.538;13.820;2022-12-24T13:36:09;18.48;;;11.35;;
44842;SDS011;31884;52.538;13.820;2022-12-24T13:44:03;19.25;;;11.32;;
44842;SDS011;31884;52.538;13.820;2022-12-24T13:49:34;22.15;;;11.90;;
44842;SDS011;31884;52.538;13.820;2022-12-24T13:54:40;15.68;;;9.57;;
44842;SDS011;31884;52.538;13.820;2022-12-24T13:57:23;18.88;;;11.82;;
44842;SDS011;31884;52.538;13.820;2022-12-24T13:59:58;24.33;;;13.90;;
44842;SDS011;31884;52.538;13.820;2022-12-24T14:05:44;20.08;;;11.50;;
44842;SDS011;31884;52.538;13.820;2022-12-24T14:10:59;23.23;;;12.60;;
44842;SDS011;31884;52.538;13.820;2022-12-24T14:13:49;20.23;;;11.85;;
44842;SDS011;31884;52.538;13.820;2022-12-24T14:16:28;21.58;;;12.57;;
44842;SDS011;31884;52.538;13.820;2022-12-24T14:19:12;22.50;;;12.05;;
44842;SDS011;31884;52.538;13.820;2022-12-24T14:22:00;25.10;;;13.98;;
44842;SDS011;31884;52.538;13.820;2022-12-24T14:24:34;19.02;;;12.20;;
44842;SDS011;31884;52.538;13.820;2022-12-24T14:27:07;24.27;;;14.15;;
44842;SDS011;31884;52.538;13.820;2022-12-24T14:29:42;22.30;;;12.82;;
44842;SDS011;31884;52.538;13.820;2022-12-24T14:32:15;23.23;;;13.20;;
44842;SDS011;31884;52.538;13.820;2022-12-24T14:34:41;23.90;;;13.60;;
44842;SDS011;31884;52.538;13.820;2022-12-24T14:37:07;20.58;;;12.15;;
44842;SDS011;31884;52.538;13.820;2022-12-24T14:39:37;18.23;;;11.70;;
44842;SDS011;31884;52.538;13.820;2022-12-24T14:47:33;19.42;;;10.70;;
44842;SDS011;31884;52.538;13.820;2022-12-24T14:55:45;16.48;;;9.32;;
44842;SDS011;31884;52.538;13.820;2022-12-24T15:00:47;16.92;;;9.23;;
44842;SDS011;31884;52.538;13.820;2022-12-24T15:03:14;15.40;;;9.70;;
44842;SDS011;31884;52.538;13.820;2022-12-24T15:05:41;19.52;;;11.30;;
44842;SDS011;31884;52.538;13.820;2022-12-24T15:08:09;20.80;;;11.27;;
44842;SDS011;31884;52.538;13.820;2022-12-24T15:10:44;19.40;;;10.30;;
44842;SDS011;31884;52.538;13.820;2022-12-24T15:15:46;17.40;;;9.98;;
44842;SDS011;31884;52.538;13.820;2022-12-24T15:18:14;14.80;;;8.70;;
44842;SDS011;31884;52.538;13.820;2022-12-24T15:20:45;17.42;;;10.65;;
44842;SDS011;31884;52.538;13.820;2022-12-24T15:23:20;15.60;;;9.35;;
44842;SDS011;31884;52.538;13.820;2022-12-24T15:25:50;17.25;;;9.73;;
44842;SDS011;31884;52.538;13.820;2022-12-24T15:28:34;17.45;;;9.73;;
44842;SDS011;31884;52.538;13.820;2022-12-24T15:31:18;22.67;;;9.35;;
44842;SDS011;31884;52.538;13.820;2022-12-24T15:33:46;14.73;;;8.82;;
44842;SDS011;31884;52.538;13.820;2022-12-24T15:36:13;19.80;;;10.73;;
44842;SDS011;31884;52.538;13.820;2022-12-24T15:38:43;20.10;;;9.20;;
44842;SDS011;31884;52.538;13.820;2022-12-24T15:43:42;17.40;;;9.07;;
44842;SDS011;31884;52.538;13.820;2022-12-24T15:46:09;19.42;;;10.50;;
44842;SDS011;31884;52.538;13.820;2022-12-24T15:48:43;20.23;;;10.27;;
44842;SDS011;31884;52.538;13.820;2022-12-24T15:51:09;20.30;;;11.10;;
44842;SDS011;31884;52.538;13.820;2022-12-24T15:53:36;66.00;;;11.68;;
44842;SDS011;31884;52.538;13.820;2022-12-24T15:58:36;22.40;;;9.85;;
44842;SDS011;31884;52.538;13.820;2022-12-24T16:03:32;15.82;;;7.85;;
44842;SDS011;31884;52.538;13.820;2022-12-24T16:06:00;12.90;;;7.53;;
44842;SDS011;31884;52.538;13.820;2022-12-24T16:08:28;13.68;;;8.00;;
44842;SDS011;31884;52.538;13.820;2022-12-24T16:11:15;16.65;;;8.50;;
44842;SDS011;31884;52.538;13.820;2022-12-24T16:16:15;21.33;;;10.35;;
44842;SDS011;31884;52.538;13.820;2022-12-24T16:18:54;16.55;;;8.77;;
44842;SDS011;31884;52.538;13.820;2022-12-24T16:23:55;16.58;;;8.52;;
44842;SDS011;31884;52.538;13.820;2022-12-24T16:26:30;16.45;;;5.80;;
44842;SDS011;31884;52.538;13.820;2022-12-24T16:28:56;23.33;;;7.90;;
44842;SDS011;31884;52.538;13.820;2022-12-24T16:31:28;19.42;;;8.23;;
44842;SDS011;31884;52.538;13.820;2022-12-24T16:34:15;18.88;;;7.20;;
44842;SDS011;31884;52.538;13.820;2022-12-24T16:36:44;20.85;;;7.45;;
44842;SDS011;31884;52.538;13.820;2022-12-24T16:39:15;20.08;;;7.55;;
44842;SDS011;31884;52.538;13.820;2022-12-24T16:41:51;21.15;;;8.05;;
44842;SDS011;31884;52.538;13.820;2022-12-24T16:44:37;19.92;;;6.88;;
44842;SDS011;31884;52.538;13.820;2022-12-24T16:47:04;13.27;;;7.07;;